sensor_id;sensor_type;location;lat;lon;timestamp;P1;durP1;ratioP1;P2;durP2;ratioP2
55589;SDS011;41452;42.780;23.116;2023-06-10T00:01:28;10.82;;;5.45;;
55589;SDS011;41452;42.780;23.116;2023-06-10T00:03:53;7.65;;;4.78;;
55589;SDS011;41452;42.780;23.116;2023-06-10T00:06:19;9.45;;;5.30;;
55589;SDS011;41452;42.780;23.116;2023-06-10T00:08:47;19.48;;;5.85;;
55589;SDS011;41452;42.780;23.116;2023-06-10T00:11:12;12.88;;;4.97;;
55589;SDS011;41452;42.780;23.116;2023-06-10T00:13:44;8.32;;;4.93;;
55589;SDS011;41452;42.780;23.116;2023-06-10T00:16:09;13.02;;;5.32;;
55589;SDS011;41452;42.780;23.116;2023-06-10T00:18:34;7.50;;;5.45;;
55589;SDS011;41452;42.780;23.116;2023-06-10T00:21:02;11.57;;;5.70;;
55589;SDS011;41452;42.780;23.116;2023-06-10T00:23:30;8.88;;;5.07;;
55589;SDS011;41452;42.780;23.116;2023-06-10T00:25:59;6.22;;;4.95;;
55589;SDS011;41452;42.780;23.116;2023-06-10T00:28:24;9.43;;;5.00;;
55589;SDS011;41452;42.780;23.116;2023-06-10T00:30:51;7.03;;;5.43;;
55589;SDS011;41452;42.780;23.116;2023-06-10T00:33:16;8.40;;;5.10;;
55589;SDS011;41452;42.780;23.116;2023-06-10T00:35:41;9.27;;;4.95;;
55589;SDS011;41452;42.780;23.116;2023-06-10T00:38:07;6.70;;;4.63;;
55589;SDS011;41452;42.780;23.116;2023-06-10T00:40:33;7.65;;;5.28;;
55589;SDS011;41452;42.780;23.116;2023-06-10T00:43:04;7.28;;;4.78;;
55589;SDS011;41452;42.780;23.116;2023-06-10T00:45:29;11.40;;;5.47;;
55589;SDS011;41452;42.780;23.116;2023-06-10T00:47:55;10.25;;;5.22;;
55589;SDS011;41452;42.780;23.116;2023-06-10T00:50:21;11.20;;;6.13;;
55589;SDS011;41452;42.780;23.116;2023-06-10T00:52:46;7.45;;;4.93;;
55589;SDS011;41452;42.780;23.116;2023-06-10T00:55:13;8.90;;;5.95;;
55589;SDS011;41452;42.780;23.116;2023-06-10T00:57:41;10.43;;;5.25;;
55589;SDS011;41452;42.780;23.116;2023-06-10T01:00:09;8.32;;;5.28;;
55589;SDS011;41452;42.780;23.116;2023-06-10T01:02:35;9.63;;;5.03;;
55589;SDS011;41452;42.780;23.116;2023-06-10T01:05:01;7.20;;;4.75;;
55589;SDS011;41452;42.780;23.116;2023-06-10T01:12:41;8.82;;;5.43;;
55589;SDS011;41452;42.780;23.116;2023-06-10T01:15:14;16.85;;;5.97;;
55589;SDS011;41452;42.780;23.116;2023-06-10T01:17:56;8.23;;;5.47;;
55589;SDS011;41452;42.780;23.116;2023-06-10T01:20:22;7.70;;;5.35;;
55589;SDS011;41452;42.780;23.116;2023-06-10T01:22:49;10.93;;;5.63;;
55589;SDS011;41452;42.780;23.116;2023-06-10T01:25:15;8.27;;;4.72;;
55589;SDS011;41452;42.780;23.116;2023-06-10T01:27:42;8.48;;;4.43;;
55589;SDS011;41452;42.780;23.116;2023-06-10T01:30:14;9.40;;;4.93;;
55589;SDS011;41452;42.780;23.116;2023-06-10T01:32:45;10.25;;;5.10;;
55589;SDS011;41452;42.780;23.116;2023-06-10T01:35:15;16.08;;;5.47;;
55589;SDS011;41452;42.780;23.116;2023-06-10T01:37:42;7.32;;;5.38;;
55589;SDS011;41452;42.780;23.116;2023-06-10T01:40:10;10.48;;;4.97;;
55589;SDS011;41452;42.780;23.116;2023-06-10T01:42:37;10.20;;;5.80;;
55589;SDS011;41452;42.780;23.116;2023-06-10T01:45:03;12.80;;;5.80;;
55589;SDS011;41452;42.780;23.116;2023-06-10T01:47:29;10.00;;;4.95;;
55589;SDS011;41452;42.780;23.116;2023-06-10T01:49:54;10.55;;;5.32;;
55589;SDS011;41452;42.780;23.116;2023-06-10T01:52:20;10.95;;;5.13;;
55589;SDS011;41452;42.780;23.116;2023-06-10T01:54:45;11.07;;;5.35;;
55589;SDS011;41452;42.780;23.116;2023-06-10T01:57:11;10.70;;;5.35;;
55589;SDS011;41452;42.780;23.116;2023-06-10T01:59:36;10.07;;;5.55;;
55589;SDS011;41452;42.780;23.116;2023-06-10T02:02:03;8.27;;;4.85;;
55589;SDS011;41452;42.780;23.116;2023-06-10T02:04:29;9.38;;;5.55;;
55589;SDS011;41452;42.780;23.116;2023-06-10T02:06:54;9.45;;;5.65;;
55589;SDS011;41452;42.780;23.116;2023-06-10T02:09:20;9.30;;;4.85;;
55589;SDS011;41452;42.780;23.116;2023-06-10T02:11:47;8.48;;;4.72;;
55589;SDS011;41452;42.780;23.116;2023-06-10T02:14:13;10.90;;;5.30;;
55589;SDS011;41452;42.780;23.116;2023-06-10T02:16:38;8.45;;;4.72;;
55589;SDS011;41452;42.780;23.116;2023-06-10T02:19:04;7.65;;;5.05;;
55589;SDS011;41452;42.780;23.116;2023-06-10T02:21:31;9.85;;;5.50;;
55589;SDS011;41452;42.780;23.116;2023-06-10T02:23:57;13.00;;;5.00;;
55589;SDS011;41452;42.780;23.116;2023-06-10T02:26:22;10.60;;;5.35;;
55589;SDS011;41452;42.780;23.116;2023-06-10T02:28:48;7.28;;;5.45;;
55589;SDS011;41452;42.780;23.116;2023-06-10T02:31:13;9.52;;;5.00;;
55589;SDS011;41452;42.780;23.116;2023-06-10T02:33:38;13.63;;;5.22;;
55589;SDS011;41452;42.780;23.116;2023-06-10T02:36:05;13.50;;;6.13;;
55589;SDS011;41452;42.780;23.116;2023-06-10T02:38:31;8.10;;;5.45;;
55589;SDS011;41452;42.780;23.116;2023-06-10T02:40:56;10.55;;;6.15;;
55589;SDS011;41452;42.780;23.116;2023-06-10T02:43:22;10.38;;;4.85;;
55589;SDS011;41452;42.780;23.116;2023-06-10T02:45:47;6.43;;;4.72;;
55589;SDS011;41452;42.780;23.116;2023-06-10T02:48:12;9.07;;;5.70;;
55589;SDS011;41452;42.780;23.116;2023-06-10T02:50:38;8.23;;;5.40;;
55589;SDS011;41452;42.780;23.116;2023-06-10T02:53:05;8.88;;;5.55;;
55589;SDS011;41452;42.780;23.116;2023-06-10T02:55:30;9.98;;;5.18;;
55589;SDS011;41452;42.780;23.116;2023-06-10T02:57:57;9.07;;;5.35;;
55589;SDS011;41452;42.780;23.116;2023-06-10T03:00:23;6.65;;;4.88;;
55589;SDS011;41452;42.780;23.116;2023-06-10T03:02:48;10.90;;;5.88;;
55589;SDS011;41452;42.780;23.116;2023-06-10T03:05:14;11.13;;;4.95;;
55589;SDS011;41452;42.780;23.116;2023-06-10T03:07:39;6.78;;;4.70;;
55589;SDS011;41452;42.780;23.116;2023-06-10T03:10:05;13.88;;;5.53;;
55589;SDS011;41452;42.780;23.116;2023-06-10T03:12:31;8.30;;;5.25;;
55589;SDS011;41452;42.780;23.116;2023-06-10T03:14:57;10.32;;;5.10;;
55589;SDS011;41452;42.780;23.116;2023-06-10T03:17:22;5.80;;;4.68;;
55589;SDS011;41452;42.780;23.116;2023-06-10T03:19:48;8.38;;;4.78;;
55589;SDS011;41452;42.780;23.116;2023-06-10T03:22:14;14.15;;;6.07;;
55589;SDS011;41452;42.780;23.116;2023-06-10T03:24:40;7.70;;;5.28;;
55589;SDS011;41452;42.780;23.116;2023-06-10T03:27:12;11.95;;;5.03;;
55589;SDS011;41452;42.780;23.116;2023-06-10T03:29:38;8.50;;;5.38;;
55589;SDS011;41452;42.780;23.116;2023-06-10T03:32:04;9.73;;;5.10;;
55589;SDS011;41452;42.780;23.116;2023-06-10T03:34:30;7.88;;;5.32;;
55589;SDS011;41452;42.780;23.116;2023-06-10T03:36:56;7.35;;;5.40;;
55589;SDS011;41452;42.780;23.116;2023-06-10T03:39:22;9.93;;;6.03;;
55589;SDS011;41452;42.780;23.116;2023-06-10T03:41:48;6.80;;;5.15;;
55589;SDS011;41452;42.780;23.116;2023-06-10T03:44:14;12.02;;;5.40;;
55589;SDS011;41452;42.780;23.116;2023-06-10T03:46:40;6.95;;;5.45;;
55589;SDS011;41452;42.780;23.116;2023-06-10T03:49:05;7.72;;;5.03;;
55589;SDS011;41452;42.780;23.116;2023-06-10T03:51:31;12.02;;;5.30;;
55589;SDS011;41452;42.780;23.116;2023-06-10T03:53:56;7.75;;;5.05;;
55589;SDS011;41452;42.780;23.116;2023-06-10T03:56:21;7.38;;;5.20;;
55589;SDS011;41452;42.780;23.116;2023-06-10T03:58:47;7.40;;;5.50;;
55589;SDS011;41452;42.780;23.116;2023-06-10T04:01:12;7.18;;;4.75;;
55589;SDS011;41452;42.780;23.116;2023-06-10T04:03:43;8.32;;;6.00;;
55589;SDS011;41452;42.780;23.116;2023-06-10T04:06:08;10.98;;;5.53;;
55589;SDS011;41452;42.780;23.116;2023-06-10T04:08:34;7.82;;;5.38;;
55589;SDS011;41452;42.780;23.116;2023-06-10T04:10:59;9.40;;;6.00;;
55589;SDS011;41452;42.780;23.116;2023-06-10T04:13:24;10.90;;;5.70;;
55589;SDS011;41452;42.780;23.116;2023-06-10T04:15:50;7.70;;;5.05;;
55589;SDS011;41452;42.780;23.116;2023-06-10T04:18:16;8.80;;;5.35;;
55589;SDS011;41452;42.780;23.116;2023-06-10T04:20:41;8.07;;;5.28;;
55589;SDS011;41452;42.780;23.116;2023-06-10T04:23:07;7.13;;;5.18;;
55589;SDS011;41452;42.780;23.116;2023-06-10T04:25:32;8.23;;;5.32;;
55589;SDS011;41452;42.780;23.116;2023-06-10T04:27:57;10.50;;;5.82;;
55589;SDS011;41452;42.780;23.116;2023-06-10T04:30:23;6.95;;;4.97;;
55589;SDS011;41452;42.780;23.116;2023-06-10T04:32:48;7.03;;;4.75;;
55589;SDS011;41452;42.780;23.116;2023-06-10T04:35:14;7.38;;;5.68;;
55589;SDS011;41452;42.780;23.116;2023-06-10T04:37:40;6.97;;;5.32;;
55589;SDS011;41452;42.780;23.116;2023-06-10T04:40:06;8.73;;;5.75;;
55589;SDS011;41452;42.780;23.116;2023-06-10T04:42:32;8.65;;;5.40;;
55589;SDS011;41452;42.780;23.116;2023-06-10T04:44:58;9.68;;;5.40;;
55589;SDS011;41452;42.780;23.116;2023-06-10T04:47:25;9.25;;;5.10;;
55589;SDS011;41452;42.780;23.116;2023-06-10T04:49:51;10.18;;;5.38;;
55589;SDS011;41452;42.780;23.116;2023-06-10T04:52:17;15.68;;;5.50;;
55589;SDS011;41452;42.780;23.116;2023-06-10T04:54:42;7.38;;;4.75;;
55589;SDS011;41452;42.780;23.116;2023-06-10T04:57:08;11.13;;;5.32;;
55589;SDS011;41452;42.780;23.116;2023-06-10T04:59:34;7.15;;;5.15;;
55589;SDS011;41452;42.780;23.116;2023-06-10T05:02:02;7.47;;;5.25;;
55589;SDS011;41452;42.780;23.116;2023-06-10T05:04:29;7.20;;;5.65;;
55589;SDS011;41452;42.780;23.116;2023-06-10T05:06:55;9.13;;;6.07;;
55589;SDS011;41452;42.780;23.116;2023-06-10T05:09:20;8.80;;;5.57;;
55589;SDS011;41452;42.780;23.116;2023-06-10T05:11:46;6.88;;;5.22;;
55589;SDS011;41452;42.780;23.116;2023-06-10T05:14:11;10.32;;;5.53;;
55589;SDS011;41452;42.780;23.116;2023-06-10T05:16:37;10.18;;;4.65;;
55589;SDS011;41452;42.780;23.116;2023-06-10T05:19:02;8.48;;;5.97;;
55589;SDS011;41452;42.780;23.116;2023-06-10T05:21:28;8.25;;;4.90;;
55589;SDS011;41452;42.780;23.116;2023-06-10T05:23:54;9.45;;;5.47;;
55589;SDS011;41452;42.780;23.116;2023-06-10T05:26:19;9.00;;;4.90;;
55589;SDS011;41452;42.780;23.116;2023-06-10T05:28:45;8.23;;;4.88;;
55589;SDS011;41452;42.780;23.116;2023-06-10T05:31:10;7.30;;;4.70;;
55589;SDS011;41452;42.780;23.116;2023-06-10T05:33:36;11.65;;;5.25;;
55589;SDS011;41452;42.780;23.116;2023-06-10T05:36:01;8.80;;;4.90;;
55589;SDS011;41452;42.780;23.116;2023-06-10T05:38:27;8.82;;;5.55;;
55589;SDS011;41452;42.780;23.116;2023-06-10T05:40:52;8.95;;;5.43;;
55589;SDS011;41452;42.780;23.116;2023-06-10T05:43:18;9.07;;;5.68;;
55589;SDS011;41452;42.780;23.116;2023-06-10T05:45:43;10.43;;;5.25;;
55589;SDS011;41452;42.780;23.116;2023-06-10T05:48:09;8.10;;;5.63;;
55589;SDS011;41452;42.780;23.116;2023-06-10T05:50:34;8.60;;;5.22;;
55589;SDS011;41452;42.780;23.116;2023-06-10T05:53:03;9.30;;;5.65;;
55589;SDS011;41452;42.780;23.116;2023-06-10T05:55:31;6.20;;;4.75;;
55589;SDS011;41452;42.780;23.116;2023-06-10T05:58:00;7.03;;;5.15;;
55589;SDS011;41452;42.780;23.116;2023-06-10T06:00:26;7.00;;;4.78;;
55589;SDS011;41452;42.780;23.116;2023-06-10T06:02:52;9.73;;;5.65;;
55589;SDS011;41452;42.780;23.116;2023-06-10T06:05:19;7.80;;;5.45;;
55589;SDS011;41452;42.780;23.116;2023-06-10T06:07:44;10.35;;;6.32;;
55589;SDS011;41452;42.780;23.116;2023-06-10T06:10:10;7.55;;;5.43;;
55589;SDS011;41452;42.780;23.116;2023-06-10T06:12:35;11.10;;;5.32;;
55589;SDS011;41452;42.780;23.116;2023-06-10T06:15:02;8.20;;;4.75;;
55589;SDS011;41452;42.780;23.116;2023-06-10T06:17:27;10.93;;;5.45;;
55589;SDS011;41452;42.780;23.116;2023-06-10T06:19:52;8.73;;;4.55;;
55589;SDS011;41452;42.780;23.116;2023-06-10T06:22:17;7.40;;;5.03;;
55589;SDS011;41452;42.780;23.116;2023-06-10T06:24:46;8.55;;;5.28;;
55589;SDS011;41452;42.780;23.116;2023-06-10T06:27:12;6.10;;;5.07;;
55589;SDS011;41452;42.780;23.116;2023-06-10T06:29:37;6.80;;;4.78;;
55589;SDS011;41452;42.780;23.116;2023-06-10T06:32:02;14.23;;;5.43;;
55589;SDS011;41452;42.780;23.116;2023-06-10T06:34:28;9.40;;;5.30;;
55589;SDS011;41452;42.780;23.116;2023-06-10T06:36:53;9.57;;;5.53;;
55589;SDS011;41452;42.780;23.116;2023-06-10T06:39:19;8.68;;;4.85;;
55589;SDS011;41452;42.780;23.116;2023-06-10T06:41:44;6.30;;;4.63;;
55589;SDS011;41452;42.780;23.116;2023-06-10T06:44:10;8.38;;;4.97;;
55589;SDS011;41452;42.780;23.116;2023-06-10T06:46:35;10.52;;;5.10;;
55589;SDS011;41452;42.780;23.116;2023-06-10T06:49:00;10.77;;;5.43;;
55589;SDS011;41452;42.780;23.116;2023-06-10T06:51:26;6.68;;;4.63;;
55589;SDS011;41452;42.780;23.116;2023-06-10T06:53:51;7.03;;;5.03;;
55589;SDS011;41452;42.780;23.116;2023-06-10T06:56:19;6.30;;;4.07;;
55589;SDS011;41452;42.780;23.116;2023-06-10T06:58:46;13.20;;;4.45;;
55589;SDS011;41452;42.780;23.116;2023-06-10T07:01:11;9.35;;;5.15;;
55589;SDS011;41452;42.780;23.116;2023-06-10T07:03:37;8.60;;;5.15;;
55589;SDS011;41452;42.780;23.116;2023-06-10T07:06:02;7.10;;;4.78;;
55589;SDS011;41452;42.780;23.116;2023-06-10T07:08:28;6.15;;;4.43;;
55589;SDS011;41452;42.780;23.116;2023-06-10T07:10:53;6.53;;;5.07;;
55589;SDS011;41452;42.780;23.116;2023-06-10T07:13:19;8.18;;;5.22;;
55589;SDS011;41452;42.780;23.116;2023-06-10T07:15:45;7.25;;;5.30;;
55589;SDS011;41452;42.780;23.116;2023-06-10T07:18:10;8.00;;;3.97;;
55589;SDS011;41452;42.780;23.116;2023-06-10T07:20:36;7.75;;;4.70;;
55589;SDS011;41452;42.780;23.116;2023-06-10T07:23:01;7.63;;;4.57;;
55589;SDS011;41452;42.780;23.116;2023-06-10T07:25:27;8.15;;;4.55;;
55589;SDS011;41452;42.780;23.116;2023-06-10T07:27:52;6.15;;;4.00;;
55589;SDS011;41452;42.780;23.116;2023-06-10T07:30:17;8.52;;;4.15;;
55589;SDS011;41452;42.780;23.116;2023-06-10T07:32:43;6.85;;;3.70;;
55589;SDS011;41452;42.780;23.116;2023-06-10T07:35:09;7.30;;;3.63;;
55589;SDS011;41452;42.780;23.116;2023-06-10T07:37:37;5.55;;;4.10;;
55589;SDS011;41452;42.780;23.116;2023-06-10T07:40:03;6.15;;;4.20;;
55589;SDS011;41452;42.780;23.116;2023-06-10T07:42:29;7.28;;;5.00;;
55589;SDS011;41452;42.780;23.116;2023-06-10T07:44:56;8.40;;;4.53;;
55589;SDS011;41452;42.780;23.116;2023-06-10T07:47:21;8.38;;;4.63;;
55589;SDS011;41452;42.780;23.116;2023-06-10T07:49:47;12.65;;;4.47;;
55589;SDS011;41452;42.780;23.116;2023-06-10T07:52:12;7.35;;;3.67;;
55589;SDS011;41452;42.780;23.116;2023-06-10T07:54:38;8.38;;;3.83;;
55589;SDS011;41452;42.780;23.116;2023-06-10T07:57:03;11.10;;;4.00;;
55589;SDS011;41452;42.780;23.116;2023-06-10T07:59:29;6.57;;;4.00;;
55589;SDS011;41452;42.780;23.116;2023-06-10T08:01:54;6.28;;;3.60;;
55589;SDS011;41452;42.780;23.116;2023-06-10T08:04:19;6.05;;;3.70;;
55589;SDS011;41452;42.780;23.116;2023-06-10T08:06:45;8.77;;;3.55;;
55589;SDS011;41452;42.780;23.116;2023-06-10T08:09:10;5.97;;;3.75;;
55589;SDS011;41452;42.780;23.116;2023-06-10T08:11:35;5.35;;;3.70;;
55589;SDS011;41452;42.780;23.116;2023-06-10T08:14:01;6.53;;;3.25;;
55589;SDS011;41452;42.780;23.116;2023-06-10T08:16:26;6.60;;;3.35;;
55589;SDS011;41452;42.780;23.116;2023-06-10T08:18:52;6.97;;;3.17;;
55589;SDS011;41452;42.780;23.116;2023-06-10T08:21:18;7.95;;;3.03;;
55589;SDS011;41452;42.780;23.116;2023-06-10T08:23:43;6.57;;;2.85;;
55589;SDS011;41452;42.780;23.116;2023-06-10T08:26:09;7.68;;;3.33;;
55589;SDS011;41452;42.780;23.116;2023-06-10T08:28:34;6.10;;;3.20;;
55589;SDS011;41452;42.780;23.116;2023-06-10T08:31:00;7.22;;;3.13;;
55589;SDS011;41452;42.780;23.116;2023-06-10T08:33:25;5.78;;;3.28;;
55589;SDS011;41452;42.780;23.116;2023-06-10T08:35:50;6.55;;;3.38;;
55589;SDS011;41452;42.780;23.116;2023-06-10T08:38:16;11.50;;;2.95;;
55589;SDS011;41452;42.780;23.116;2023-06-10T08:40:41;7.22;;;3.40;;
55589;SDS011;41452;42.780;23.116;2023-06-10T08:43:07;5.63;;;3.13;;
55589;SDS011;41452;42.780;23.116;2023-06-10T08:45:39;4.18;;;3.25;;
55589;SDS011;41452;42.780;23.116;2023-06-10T08:48:08;5.05;;;2.88;;
55589;SDS011;41452;42.780;23.116;2023-06-10T08:50:36;5.50;;;2.78;;
55589;SDS011;41452;42.780;23.116;2023-06-10T08:53:04;6.95;;;3.10;;
55589;SDS011;41452;42.780;23.116;2023-06-10T08:55:31;7.18;;;3.10;;
55589;SDS011;41452;42.780;23.116;2023-06-10T08:58:06;6.55;;;3.17;;
55589;SDS011;41452;42.780;23.116;2023-06-10T09:00:32;6.10;;;2.45;;
55589;SDS011;41452;42.780;23.116;2023-06-10T09:02:58;6.10;;;2.88;;
55589;SDS011;41452;42.780;23.116;2023-06-10T09:05:24;4.13;;;2.50;;
55589;SDS011;41452;42.780;23.116;2023-06-10T09:07:52;7.00;;;2.75;;
55589;SDS011;41452;42.780;23.116;2023-06-10T09:10:18;6.70;;;3.20;;
55589;SDS011;41452;42.780;23.116;2023-06-10T09:12:43;4.82;;;3.00;;
55589;SDS011;41452;42.780;23.116;2023-06-10T09:15:09;5.22;;;3.30;;
55589;SDS011;41452;42.780;23.116;2023-06-10T09:17:37;6.53;;;3.08;;
55589;SDS011;41452;42.780;23.116;2023-06-10T09:20:03;4.25;;;2.70;;
55589;SDS011;41452;42.780;23.116;2023-06-10T09:22:29;7.65;;;2.30;;
55589;SDS011;41452;42.780;23.116;2023-06-10T09:25:07;7.32;;;2.50;;
55589;SDS011;41452;42.780;23.116;2023-06-10T09:27:47;3.80;;;2.58;;
55589;SDS011;41452;42.780;23.116;2023-06-10T09:30:39;3.30;;;2.35;;
55589;SDS011;41452;42.780;23.116;2023-06-10T09:33:09;6.53;;;2.65;;
55589;SDS011;41452;42.780;23.116;2023-06-10T09:35:36;4.03;;;2.65;;
55589;SDS011;41452;42.780;23.116;2023-06-10T09:40:47;4.07;;;2.60;;
55589;SDS011;41452;42.780;23.116;2023-06-10T09:43:14;3.88;;;2.47;;
55589;SDS011;41452;42.780;23.116;2023-06-10T09:45:40;6.97;;;2.72;;
55589;SDS011;41452;42.780;23.116;2023-06-10T09:48:05;5.95;;;2.85;;
55589;SDS011;41452;42.780;23.116;2023-06-10T09:50:37;6.78;;;2.67;;
55589;SDS011;41452;42.780;23.116;2023-06-10T09:53:07;5.63;;;3.00;;
55589;SDS011;41452;42.780;23.116;2023-06-10T09:55:33;5.57;;;2.78;;
55589;SDS011;41452;42.780;23.116;2023-06-10T09:57:58;11.52;;;2.72;;
55589;SDS011;41452;42.780;23.116;2023-06-10T10:00:24;6.32;;;2.53;;
55589;SDS011;41452;42.780;23.116;2023-06-10T10:02:51;5.18;;;3.05;;
55589;SDS011;41452;42.780;23.116;2023-06-10T10:05:19;5.90;;;2.45;;
55589;SDS011;41452;42.780;23.116;2023-06-10T10:07:45;5.85;;;2.50;;
55589;SDS011;41452;42.780;23.116;2023-06-10T10:10:11;7.40;;;3.38;;
55589;SDS011;41452;42.780;23.116;2023-06-10T10:12:38;7.10;;;2.60;;
55589;SDS011;41452;42.780;23.116;2023-06-10T10:15:05;7.35;;;2.67;;
55589;SDS011;41452;42.780;23.116;2023-06-10T10:17:34;8.98;;;3.10;;
55589;SDS011;41452;42.780;23.116;2023-06-10T10:20:03;5.18;;;2.72;;
55589;SDS011;41452;42.780;23.116;2023-06-10T10:22:33;7.07;;;3.67;;
55589;SDS011;41452;42.780;23.116;2023-06-10T10:25:02;4.75;;;2.65;;
55589;SDS011;41452;42.780;23.116;2023-06-10T10:27:35;5.32;;;2.70;;
55589;SDS011;41452;42.780;23.116;2023-06-10T10:30:06;3.35;;;2.33;;
55589;SDS011;41452;42.780;23.116;2023-06-10T10:32:37;5.57;;;2.60;;
55589;SDS011;41452;42.780;23.116;2023-06-10T10:35:09;4.53;;;2.60;;
55589;SDS011;41452;42.780;23.116;2023-06-10T10:40:05;4.40;;;2.60;;
55589;SDS011;41452;42.780;23.116;2023-06-10T10:42:33;4.15;;;2.58;;
55589;SDS011;41452;42.780;23.116;2023-06-10T10:44:59;7.53;;;2.40;;
55589;SDS011;41452;42.780;23.116;2023-06-10T10:47:27;7.38;;;2.65;;
55589;SDS011;41452;42.780;23.116;2023-06-10T10:49:56;4.30;;;2.63;;
55589;SDS011;41452;42.780;23.116;2023-06-10T10:52:24;3.95;;;2.80;;
55589;SDS011;41452;42.780;23.116;2023-06-10T10:54:50;5.20;;;2.80;;
55589;SDS011;41452;42.780;23.116;2023-06-10T10:57:19;6.57;;;3.40;;
55589;SDS011;41452;42.780;23.116;2023-06-10T11:02:36;5.97;;;2.63;;
55589;SDS011;41452;42.780;23.116;2023-06-10T11:05:06;8.10;;;2.67;;
55589;SDS011;41452;42.780;23.116;2023-06-10T11:07:32;6.15;;;3.10;;
55589;SDS011;41452;42.780;23.116;2023-06-10T11:15:11;4.82;;;2.50;;
55589;SDS011;41452;42.780;23.116;2023-06-10T11:17:37;6.20;;;3.13;;
55589;SDS011;41452;42.780;23.116;2023-06-10T11:23:29;6.00;;;2.88;;
55589;SDS011;41452;42.780;23.116;2023-06-10T11:29:05;4.07;;;2.72;;
55589;SDS011;41452;42.780;23.116;2023-06-10T11:34:06;4.63;;;3.05;;
55589;SDS011;41452;42.780;23.116;2023-06-10T11:36:33;6.38;;;3.42;;
55589;SDS011;41452;42.780;23.116;2023-06-10T11:39:04;4.70;;;2.53;;
55589;SDS011;41452;42.780;23.116;2023-06-10T11:41:31;3.30;;;2.55;;
55589;SDS011;41452;42.780;23.116;2023-06-10T11:44:07;4.20;;;2.40;;
55589;SDS011;41452;42.780;23.116;2023-06-10T11:46:34;5.95;;;2.47;;
55589;SDS011;41452;42.780;23.116;2023-06-10T11:49:00;5.85;;;2.92;;
55589;SDS011;41452;42.780;23.116;2023-06-10T11:51:33;5.40;;;2.65;;
55589;SDS011;41452;42.780;23.116;2023-06-10T11:54:00;4.05;;;2.53;;
55589;SDS011;41452;42.780;23.116;2023-06-10T11:56:27;4.20;;;2.50;;
55589;SDS011;41452;42.780;23.116;2023-06-10T11:58:54;4.68;;;2.97;;
55589;SDS011;41452;42.780;23.116;2023-06-10T12:01:32;6.13;;;3.47;;
55589;SDS011;41452;42.780;23.116;2023-06-10T12:04:03;9.05;;;3.30;;
55589;SDS011;41452;42.780;23.116;2023-06-10T12:06:39;4.22;;;2.83;;
55589;SDS011;41452;42.780;23.116;2023-06-10T12:09:05;4.13;;;2.75;;
55589;SDS011;41452;42.780;23.116;2023-06-10T12:11:31;4.20;;;2.40;;
55589;SDS011;41452;42.780;23.116;2023-06-10T12:13:57;4.63;;;2.70;;
55589;SDS011;41452;42.780;23.116;2023-06-10T12:16:23;5.70;;;2.80;;
55589;SDS011;41452;42.780;23.116;2023-06-10T12:18:48;4.03;;;2.70;;
55589;SDS011;41452;42.780;23.116;2023-06-10T12:21:17;8.63;;;3.05;;
55589;SDS011;41452;42.780;23.116;2023-06-10T12:24:04;4.03;;;2.45;;
55589;SDS011;41452;42.780;23.116;2023-06-10T12:26:43;6.35;;;2.72;;
55589;SDS011;41452;42.780;23.116;2023-06-10T12:29:15;3.25;;;2.30;;
55589;SDS011;41452;42.780;23.116;2023-06-10T12:31:52;7.82;;;3.72;;
55589;SDS011;41452;42.780;23.116;2023-06-10T12:34:19;3.47;;;2.35;;
55589;SDS011;41452;42.780;23.116;2023-06-10T12:36:48;4.22;;;2.50;;
55589;SDS011;41452;42.780;23.116;2023-06-10T12:39:14;18.77;;;3.80;;
55589;SDS011;41452;42.780;23.116;2023-06-10T12:41:39;16.38;;;3.10;;
55589;SDS011;41452;42.780;23.116;2023-06-10T12:44:05;8.30;;;3.30;;
55589;SDS011;41452;42.780;23.116;2023-06-10T12:46:37;10.73;;;3.92;;
55589;SDS011;41452;42.780;23.116;2023-06-10T12:49:02;15.52;;;4.10;;
55589;SDS011;41452;42.780;23.116;2023-06-10T12:51:27;7.38;;;3.92;;
55589;SDS011;41452;42.780;23.116;2023-06-10T12:53:53;6.47;;;3.65;;
55589;SDS011;41452;42.780;23.116;2023-06-10T12:56:18;6.93;;;3.42;;
55589;SDS011;41452;42.780;23.116;2023-06-10T12:58:43;9.45;;;4.00;;
55589;SDS011;41452;42.780;23.116;2023-06-10T13:01:09;9.93;;;3.88;;
55589;SDS011;41452;42.780;23.116;2023-06-10T13:03:34;8.13;;;4.35;;
55589;SDS011;41452;42.780;23.116;2023-06-10T13:06:00;7.47;;;4.25;;
55589;SDS011;41452;42.780;23.116;2023-06-10T13:08:25;11.60;;;3.75;;
55589;SDS011;41452;42.780;23.116;2023-06-10T13:10:50;7.43;;;3.60;;
55589;SDS011;41452;42.780;23.116;2023-06-10T13:13:16;5.85;;;3.33;;
55589;SDS011;41452;42.780;23.116;2023-06-10T13:15:42;10.80;;;3.78;;
55589;SDS011;41452;42.780;23.116;2023-06-10T13:18:08;8.75;;;3.65;;
55589;SDS011;41452;42.780;23.116;2023-06-10T13:20:33;10.38;;;4.20;;
55589;SDS011;41452;42.780;23.116;2023-06-10T13:22:59;7.70;;;3.60;;
55589;SDS011;41452;42.780;23.116;2023-06-10T13:25:24;7.15;;;3.97;;
55589;SDS011;41452;42.780;23.116;2023-06-10T13:27:50;6.63;;;3.75;;
55589;SDS011;41452;42.780;23.116;2023-06-10T13:30:15;6.57;;;3.70;;
55589;SDS011;41452;42.780;23.116;2023-06-10T13:32:41;7.90;;;3.25;;
55589;SDS011;41452;42.780;23.116;2023-06-10T13:35:06;17.10;;;3.53;;
55589;SDS011;41452;42.780;23.116;2023-06-10T13:37:32;6.93;;;3.58;;
55589;SDS011;41452;42.780;23.116;2023-06-10T13:39:58;11.77;;;4.30;;
55589;SDS011;41452;42.780;23.116;2023-06-10T13:42:24;10.43;;;4.20;;
55589;SDS011;41452;42.780;23.116;2023-06-10T13:44:51;9.75;;;3.63;;
55589;SDS011;41452;42.780;23.116;2023-06-10T13:47:16;9.40;;;4.18;;
55589;SDS011;41452;42.780;23.116;2023-06-10T13:49:42;7.85;;;5.07;;
55589;SDS011;41452;42.780;23.116;2023-06-10T13:52:08;10.18;;;4.53;;
55589;SDS011;41452;42.780;23.116;2023-06-10T13:54:33;7.88;;;4.30;;
55589;SDS011;41452;42.780;23.116;2023-06-10T13:57:01;7.30;;;3.60;;
55589;SDS011;41452;42.780;23.116;2023-06-10T13:59:27;7.03;;;3.88;;
55589;SDS011;41452;42.780;23.116;2023-06-10T14:01:52;7.50;;;3.50;;
55589;SDS011;41452;42.780;23.116;2023-06-10T14:04:18;4.65;;;3.47;;
55589;SDS011;41452;42.780;23.116;2023-06-10T14:06:43;5.68;;;3.60;;
55589;SDS011;41452;42.780;23.116;2023-06-10T14:09:09;7.60;;;4.10;;
55589;SDS011;41452;42.780;23.116;2023-06-10T14:11:35;5.35;;;3.60;;
55589;SDS011;41452;42.780;23.116;2023-06-10T14:14:00;5.57;;;3.85;;
55589;SDS011;41452;42.780;23.116;2023-06-10T14:16:26;6.93;;;4.47;;
55589;SDS011;41452;42.780;23.116;2023-06-10T14:18:51;6.15;;;4.30;;
55589;SDS011;41452;42.780;23.116;2023-06-10T14:21:17;5.72;;;4.13;;
55589;SDS011;41452;42.780;23.116;2023-06-10T14:23:42;5.65;;;4.03;;
55589;SDS011;41452;42.780;23.116;2023-06-10T14:26:08;6.55;;;3.70;;
55589;SDS011;41452;42.780;23.116;2023-06-10T14:28:34;8.25;;;4.35;;
55589;SDS011;41452;42.780;23.116;2023-06-10T14:31:00;13.35;;;5.25;;
55589;SDS011;41452;42.780;23.116;2023-06-10T14:33:25;6.47;;;4.15;;
55589;SDS011;41452;42.780;23.116;2023-06-10T14:35:51;5.07;;;3.33;;
55589;SDS011;41452;42.780;23.116;2023-06-10T14:38:16;7.93;;;3.97;;
55589;SDS011;41452;42.780;23.116;2023-06-10T14:40:41;7.30;;;4.50;;
55589;SDS011;41452;42.780;23.116;2023-06-10T14:43:07;7.18;;;4.28;;
55589;SDS011;41452;42.780;23.116;2023-06-10T14:45:36;5.95;;;4.03;;
55589;SDS011;41452;42.780;23.116;2023-06-10T14:48:02;5.50;;;4.00;;
55589;SDS011;41452;42.780;23.116;2023-06-10T14:50:28;7.85;;;4.20;;
55589;SDS011;41452;42.780;23.116;2023-06-10T14:52:54;5.57;;;4.10;;
55589;SDS011;41452;42.780;23.116;2023-06-10T14:55:19;7.13;;;3.95;;